Time;durP1;ratioP1;P1;durP2;ratioP2;P2;SDS_P1;SDS_P2;PMS_P1;PMS_P2;Temp;Humidity;BMP_temperature;BMP_pressure;BME280_temperature;BME280_humidity;BME280_pressure;Samples;Min_cycle;Max_cycle;Signal;HPM_P1;HPM_P2
2022/06/10 00:02:19;;;;;;;13.83;10.13;;;12.80;1.00;;;;;;5062723;28;20235;-69
2022/06/10 00:04:47;;;;;;;15.83;10.60;;;12.80;1.00;;;;;;5058774;28;20223;-70
2022/06/10 00:07:13;;;;;;;14.70;10.53;;;12.70;1.00;;;;;;5062285;28;20227;-70
2022/06/10 00:09:40;;;;;;;13.57;10.50;;;12.60;1.00;;;;;;5060330;28;20195;-69
2022/06/10 00:12:10;;;;;;;15.27;10.40;;;12.60;1.00;;;;;;5046397;28;20264;-70
2022/06/10 00:14:37;;;;;;;14.73;9.60;;;12.60;1.00;;;;;;5058821;28;20195;-70
2022/06/10 00:17:04;;;;;;;13.60;10.57;;;12.50;1.00;;;;;;5062508;28;20202;-70
2022/06/10 00:19:32;;;;;;;11.77;10.00;;;12.50;1.00;;;;;;5060401;28;20654;-70
2022/06/10 00:22:00;;;;;;;11.37;10.10;;;12.50;1.00;;;;;;5049410;28;20257;-71
2022/06/10 00:24:27;;;;;;;12.37;10.40;;;12.50;1.00;;;;;;5045366;28;20196;-69
2022/06/10 00:26:54;;;;;;;14.23;10.60;;;12.40;1.00;;;;;;5043908;28;20206;-70
2022/06/10 00:29:21;;;;;;;12.13;9.90;;;12.40;1.00;;;;;;5059208;28;20204;-72
2022/06/10 00:31:48;;;;;;;15.17;11.37;;;12.40;1.00;;;;;;5061184;28;20269;-69
2022/06/10 00:34:15;;;;;;;14.20;11.37;;;12.30;1.00;;;;;;5050908;28;20208;-69
2022/06/10 00:36:42;;;;;;;12.23;10.33;;;12.30;37.40;;;;;;5046945;28;20594;-69
2022/06/10 00:39:09;;;;;;;14.67;10.90;;;12.30;99.90;;;;;;5033431;28;20594;-70
2022/06/10 00:41:43;;;;;;;13.90;11.07;;;12.30;88.50;;;;;;5058222;28;20671;-70
2022/06/10 00:44:54;;;;;;;13.77;10.50;;;12.20;11.10;;;;;;5041650;28;20252;-70
2022/06/10 00:47:23;;;;;;;12.87;10.53;;;12.20;1.00;;;;;;4999785;28;20201;-69
2022/06/10 00:49:55;;;;;;;13.40;10.70;;;12.20;1.00;;;;;;4983251;28;20197;-69
2022/06/10 00:52:36;;;;;;;13.73;10.80;;;12.20;24.20;;;;;;5021057;28;20219;-70
2022/06/10 00:55:06;;;;;;;12.10;10.87;;;12.10;15.80;;;;;;5061138;28;20728;-69
2022/06/10 00:57:38;;;;;;;11.57;10.13;;;12.10;12.90;;;;;;5034155;28;20195;-70
2022/06/10 01:00:15;;;;;;;17.00;11.03;;;12.10;1.00;;;;;;5042646;28;20199;-70
2022/06/10 01:02:43;;;;;;;16.80;11.20;;;12.00;1.00;;;;;;5051258;28;20261;-69
2022/06/10 01:05:17;;;;;;;11.93;10.73;;;12.00;1.00;;;;;;5058344;28;20262;-69
2022/06/10 01:07:48;;;;;;;16.37;10.73;;;12.00;1.00;;;;;;5062671;28;20226;-69
2022/06/10 01:10:17;;;;;;;14.83;10.60;;;11.90;1.00;;;;;;5049812;28;20253;-70
2022/06/10 01:13:12;;;;;;;13.73;10.53;;;11.90;1.00;;;;;;5061300;28;20219;-69
2022/06/10 01:15:59;;;;;;;13.80;9.87;;;11.90;1.00;;;;;;5031472;28;20203;-70
2022/06/10 01:18:49;;;;;;;11.67;10.10;;;11.90;1.00;;;;;;5058268;28;20203;-71
2022/06/10 01:21:37;;;;;;;10.83;9.73;;;11.80;1.00;;;;;;5033984;28;20231;-71
2022/06/10 01:24:15;;;;;;;13.40;10.30;;;11.80;37.50;;;;;;5061174;28;20687;-70
2022/06/10 01:30:22;;;;;;;12.50;10.53;;;11.70;1.00;;;;;;5060593;28;20230;-71
2022/06/10 01:32:55;;;;;;;19.00;10.77;;;11.80;99.90;;;;;;5041973;28;20241;-68
2022/06/10 01:35:55;;;;;;;10.77;9.67;;;11.80;1.00;;;;;;5050805;28;20273;-71
2022/06/10 01:38:43;;;;;;;13.53;9.90;;;11.70;99.90;;;;;;5041588;28;20269;-70
2022/06/10 01:41:10;;;;;;;14.57;10.47;;;11.70;99.90;;;;;;5025009;28;20206;-71
2022/06/10 01:43:52;;;;;;;13.23;11.40;;;11.60;99.90;;;;;;5058087;28;20226;-71
2022/06/10 01:46:27;;;;;;;15.63;11.77;;;11.60;99.90;;;;;;5057912;28;20650;-70
2022/06/10 01:49:26;;;;;;;13.73;11.57;;;11.60;1.00;;;;;;5032873;28;20195;-70
2022/06/10 01:52:32;;;;;;;15.27;11.07;;;11.50;1.00;;;;;;5019149;28;20220;-71
2022/06/10 01:55:13;;;;;;;12.57;10.57;;;11.50;99.90;;;;;;5022270;28;20211;-69
2022/06/10 01:57:43;;;;;;;15.97;12.77;;;11.40;99.90;;;;;;5024196;28;20201;-68
2022/06/10 02:00:13;;;;;;;14.20;10.87;;;11.30;1.00;;;;;;5058392;28;20191;-68
2022/06/10 02:02:47;;;;;;;12.27;11.07;;;11.40;1.00;;;;;;5056105;28;20199;-68
2022/06/10 02:05:19;;;;;;;13.87;10.80;;;11.40;1.00;;;;;;5042522;28;20203;-69
2022/06/10 02:07:55;;;;;;;13.53;11.40;;;11.40;1.00;;;;;;5051917;28;20195;-69
2022/06/10 02:10:41;;;;;;;13.50;12.00;;;11.40;1.00;;;;;;5044234;28;20245;-68
2022/06/10 02:13:15;;;;;;;13.10;11.67;;;11.40;1.00;;;;;;5042219;28;20203;-70
2022/06/10 02:15:47;;;;;;;17.50;12.10;;;11.40;1.00;;;;;;5029505;28;20204;-69
2022/06/10 02:18:21;;;;;;;16.53;12.80;;;11.40;1.00;;;;;;5039166;28;20597;-69
2022/06/10 02:20:53;;;;;;;14.77;11.50;;;11.50;1.00;;;;;;5057871;28;20227;-69
2022/06/10 02:23:26;;;;;;;15.17;10.90;;;11.40;1.00;;;;;;5037893;28;20207;-68
2022/06/10 02:25:57;;;;;;;10.63;9.53;;;11.40;1.00;;;;;;5059624;28;20202;-70
2022/06/10 02:28:53;;;;;;;10.47;9.47;;;11.30;99.90;;;;;;5049590;28;20195;-70
2022/06/10 02:31:20;;;;;;;12.10;9.60;;;11.30;99.90;;;;;;5056553;28;20215;-70
2022/06/10 02:33:50;;;;;;;10.30;9.30;;;11.10;1.00;;;;;;5059267;28;20237;-69
2022/06/10 02:36:26;;;;;;;12.43;9.77;;;11.10;1.00;;;;;;5039533;28;20200;-69
2022/06/10 02:39:08;;;;;;;11.83;9.73;;;11.00;1.00;;;;;;5046528;28;20620;-69
2022/06/10 02:42:09;;;;;;;14.90;10.40;;;11.00;75.80;;;;;;5045902;28;20793;-69
2022/06/10 02:44:45;;;;;;;12.10;10.87;;;10.90;99.90;;;;;;5024001;28;20316;-69
2022/06/10 02:47:33;;;;;;;14.43;11.20;;;10.80;99.90;;;;;;5061737;28;20226;-69
2022/06/10 02:50:01;;;;;;;14.23;10.57;;;10.80;1.00;;;;;;5043777;28;20187;-69
2022/06/10 02:52:34;;;;;;;14.33;11.37;;;10.80;1.00;;;;;;5042806;28;20215;-70
2022/06/10 02:55:04;;;;;;;11.23;10.23;;;10.90;1.00;;;;;;5046377;28;20209;-69
2022/06/10 03:03:23;;;;;;;15.73;10.60;;;10.70;1.00;;;;;;5060996;28;20221;-70
2022/06/10 03:05:50;;;;;;;14.07;10.70;;;10.70;1.00;;;;;;5052535;28;20234;-69
2022/06/10 03:08:29;;;;;;;11.40;10.30;;;10.70;1.00;;;;;;5063833;28;20252;-71
2022/06/10 03:11:09;;;;;;;11.80;10.57;;;10.70;99.90;;;;;;5040659;28;20233;-70
2022/06/10 03:14:08;;;;;;;10.97;9.73;;;10.80;99.90;;;;;;5040380;28;20229;-70
2022/06/10 03:16:57;;;;;;;12.27;10.37;;;10.80;99.90;;;;;;5046680;28;20679;-69
2022/06/10 03:20:22;;;;;;;13.40;11.00;;;10.80;99.90;;;;;;5031967;28;20238;-69
2022/06/10 03:23:08;;;;;;;12.50;11.23;;;10.80;99.90;;;;;;4948404;28;20206;-70
2022/06/10 03:25:45;;;;;;;12.17;10.87;;;10.80;99.90;;;;;;4949897;28;20249;-71
2022/06/10 03:28:24;;;;;;;12.97;11.53;;;10.90;86.60;;;;;;5009569;28;20195;-69
2022/06/10 03:31:03;;;;;;;11.70;10.60;;;10.90;1.00;;;;;;5058370;28;20248;-70
2022/06/10 03:33:46;;;;;;;12.10;10.87;;;10.90;1.00;;;;;;5057415;28;20218;-70
2022/06/10 03:36:26;;;;;;;12.37;10.33;;;10.90;1.00;;;;;;5057680;28;20202;-69
2022/06/10 03:38:54;;;;;;;10.20;9.10;;;11.00;1.00;;;;;;5041880;28;20247;-69
2022/06/10 03:41:26;;;;;;;10.17;9.17;;;11.00;1.00;;;;;;5039193;28;20195;-68
2022/06/10 03:43:55;;;;;;;14.17;9.50;;;11.10;1.00;;;;;;5057827;28;20703;-69
2022/06/10 03:46:27;;;;;;;9.53;8.63;;;11.10;99.90;;;;;;5044461;28;20256;-68
2022/06/10 03:48:54;;;;;;;9.50;8.60;;;11.10;99.90;;;;;;5058838;28;20647;-69
2022/06/10 03:51:22;;;;;;;10.53;9.03;;;11.20;99.90;;;;;;5042227;28;20661;-70
2022/06/10 03:53:49;;;;;;;10.67;9.47;;;11.50;99.90;;;;;;5040328;28;20228;-69
2022/06/10 03:56:24;;;;;;;8.87;7.40;;;11.70;1.00;;;;;;5059698;28;20191;-70
2022/06/10 03:58:52;;;;;;;8.63;7.07;;;12.10;1.00;;;;;;5040532;28;20209;-70
2022/06/10 04:01:19;;;;;;;8.80;6.33;;;12.30;99.90;;;;;;5040982;28;20667;-70
2022/06/10 04:03:46;;;;;;;6.93;6.23;;;12.60;1.00;;;;;;5056628;28;20199;-70
2022/06/10 04:06:15;;;;;;;8.80;6.77;;;12.90;1.00;;;;;;5059829;28;20203;-68
2022/06/10 04:09:02;;;;;;;5.80;5.20;;;13.20;99.90;;;;;;5043221;28;20292;-70
2022/06/10 04:11:32;;;;;;;9.60;5.70;;;13.60;99.90;;;;;;5056550;28;20199;-69
2022/06/10 04:13:59;;;;;;;6.40;5.77;;;13.70;1.00;;;;;;5047361;28;20285;-69
2022/06/10 04:16:28;;;;;;;6.87;5.63;;;13.70;1.00;;;;;;5025219;28;20285;-69
2022/06/10 04:18:56;;;;;;;6.47;5.73;;;14.10;1.00;;;;;;5058608;28;20991;-69
2022/06/10 04:21:23;;;;;;;5.90;5.30;;;14.50;1.00;;;;;;5053555;28;20220;-69
2022/06/10 04:23:50;;;;;;;5.32;4.82;;;14.90;99.90;;;;;;5057260;28;20206;-69
2022/06/10 04:26:17;;;;;;;10.48;5.05;;;15.30;99.90;;;;;;5037790;28;20241;-69
2022/06/10 04:28:44;;;;;;;6.20;4.93;;;15.70;99.90;;;;;;5037775;28;20248;-69
2022/06/10 04:31:11;;;;;;;8.05;4.47;;;15.90;1.00;;;;;;5044976;28;20202;-69
2022/06/10 04:33:38;;;;;;;16.17;4.35;;;16.10;1.00;;;;;;5052224;28;20203;-70
2022/06/10 04:36:06;;;;;;;8.20;3.42;;;16.90;1.00;;;;;;5057217;28;20296;-70
2022/06/10 04:38:33;;;;;;;8.77;3.60;;;18.30;1.00;;;;;;5057868;28;20265;-70
2022/06/10 04:41:00;;;;;;;7.22;3.45;;;18.90;1.00;;;;;;5042223;28;20252;-71
2022/06/10 04:43:27;;;;;;;8.50;3.40;;;19.30;1.00;;;;;;5042268;28;20334;-71
2022/06/10 04:45:57;;;;;;;6.88;4.03;;;19.80;99.90;;;;;;5057603;28;20203;-70
2022/06/10 04:48:24;;;;;;;8.20;4.15;;;20.00;99.90;;;;;;5040807;28;20202;-70
2022/06/10 04:50:51;;;;;;;11.07;5.20;;;20.00;99.90;;;;;;5059626;28;20267;-70
2022/06/10 04:53:18;;;;;;;8.02;4.88;;;17.80;1.00;;;;;;5029222;28;20682;-70
2022/06/10 04:55:46;;;;;;;7.70;5.65;;;16.60;1.00;;;;;;5058792;28;20241;-70
2022/06/10 04:58:13;;;;;;;12.15;6.07;;;16.10;1.00;;;;;;5058368;28;20200;-71
2022/06/10 05:00:45;;;;;;;7.68;5.03;;;16.10;1.00;;;;;;5048344;28;20200;-70
2022/06/10 05:03:12;;;;;;;8.15;5.60;;;16.50;1.00;;;;;;5040798;28;20199;-70
2022/06/10 05:05:40;;;;;;;10.55;6.35;;;16.60;1.00;;;;;;5041745;28;20867;-69
2022/06/10 05:08:10;;;;;;;9.35;6.25;;;16.80;1.00;;;;;;5041707;28;20195;-69
2022/06/10 05:10:38;;;;;;;9.02;6.40;;;17.10;1.00;;;;;;5049611;28;20213;-68
2022/06/10 05:13:05;;;;;;;11.65;6.10;;;17.10;1.00;;;;;;5040726;28;20207;-70
2022/06/10 05:15:32;;;;;;;10.00;5.75;;;17.40;1.00;;;;;;5040517;28;20293;-69
2022/06/10 05:18:00;;;;;;;7.30;5.55;;;17.90;1.00;;;;;;5022909;28;20195;-69
2022/06/10 05:20:38;;;;;;;8.23;5.85;;;18.10;1.00;;;;;;5033362;28;20243;-70
2022/06/10 05:23:07;;;;;;;8.35;5.32;;;18.80;1.00;;;;;;5045819;28;20685;-69
2022/06/10 05:25:34;;;;;;;8.55;5.20;;;19.70;99.90;;;;;;5036508;28;20242;-69
2022/06/10 05:28:02;;;;;;;6.57;4.78;;;20.50;99.90;;;;;;5037942;28;20225;-70
2022/06/10 05:30:31;;;;;;;7.82;4.68;;;21.70;99.90;;;;;;5037902;28;20207;-70
2022/06/10 05:33:00;;;;;;;9.00;4.57;;;22.40;99.90;;;;;;5038076;28;20199;-69
2022/06/10 05:35:28;;;;;;;9.70;5.13;;;22.10;99.90;;;;;;5045717;28;20187;-69
2022/06/10 05:37:57;;;;;;;8.93;4.43;;;22.00;99.90;;;;;;5052932;28;20335;-70
2022/06/10 05:40:26;;;;;;;9.52;4.30;;;21.60;99.90;;;;;;5036862;28;20266;-69
2022/06/10 05:42:53;;;;;;;8.18;4.15;;;23.00;99.90;;;;;;5052168;28;20261;-70
2022/06/10 05:45:21;;;;;;;11.10;4.50;;;22.50;99.90;;;;;;5034963;28;20203;-70
2022/06/10 05:47:51;;;;;;;5.20;3.45;;;22.20;99.90;;;;;;5037856;28;20226;-70
2022/06/10 05:50:32;;;;;;;10.70;4.32;;;23.10;99.90;;;;;;5038764;28;20185;-70
2022/06/10 05:53:00;;;;;;;11.05;4.07;;;22.30;99.90;;;;;;5036600;28;20207;-70
2022/06/10 05:55:30;;;;;;;8.05;4.43;;;23.00;99.90;;;;;;5034539;28;20746;-70
2022/06/10 05:58:04;;;;;;;7.25;4.25;;;22.70;99.90;;;;;;5049172;28;20200;-70
2022/06/10 06:00:32;;;;;;;10.85;4.72;;;22.70;99.90;;;;;;5038322;28;20200;-69
2022/06/10 08:49:26;;;;;;;7.32;2.40;;;24.70;99.90;;;;;;5151588;27;20520;-63
2022/06/10 08:52:21;;;;;;;11.30;2.28;;;24.50;99.90;;;;;;5127315;27;20200;-63
2022/06/10 08:55:08;;;;;;;8.15;1.90;;;23.30;99.90;;;;;;5133682;27;20200;-64
2022/06/10 08:57:45;;;;;;;4.72;2.10;;;24.10;99.90;;;;;;5114990;27;20678;-63
2022/06/10 09:00:12;;;;;;;8.02;2.53;;;24.40;99.90;;;;;;5116052;27;20697;-64
2022/06/10 09:02:44;;;;;;;8.50;2.45;;;23.40;99.90;;;;;;5104706;27;20249;-64
2022/06/10 09:05:14;;;;;;;8.70;2.22;;;23.20;99.90;;;;;;5113404;27;20199;-63
2022/06/10 09:07:52;;;;;;;8.93;2.58;;;23.10;99.90;;;;;;5113411;27;20240;-63
2022/06/10 09:10:42;;;;;;;6.55;2.58;;;22.40;99.90;;;;;;5126623;27;20194;-64
2022/06/10 09:13:25;;;;;;;6.95;2.10;;;22.80;99.90;;;;;;5130328;27;20188;-64
2022/06/10 09:15:56;;;;;;;5.10;2.22;;;23.20;99.90;;;;;;5132530;27;20315;-63
2022/06/10 09:18:32;;;;;;;7.70;2.13;;;23.50;99.90;;;;;;5131769;27;20193;-63
2022/06/10 09:21:08;;;;;;;5.30;2.10;;;23.30;99.90;;;;;;5110914;27;20248;-63
2022/06/10 09:23:43;;;;;;;9.65;2.55;;;23.30;99.90;;;;;;5114653;27;20209;-64
2022/06/10 09:26:17;;;;;;;5.05;1.70;;;24.00;99.90;;;;;;5115004;27;20262;-64
2022/06/10 09:28:46;;;;;;;6.50;1.95;;;24.40;99.90;;;;;;5113358;27;21085;-64
2022/06/10 09:31:40;;;;;;;5.18;1.95;;;24.00;99.90;;;;;;5105276;27;20185;-63
2022/06/10 09:34:49;;;;;;;5.68;1.83;;;23.10;99.90;;;;;;5137197;27;20651;-64
2022/06/10 09:37:39;;;;;;;9.00;2.85;;;23.60;99.90;;;;;;5103605;27;20224;-64
2022/06/10 09:40:39;;;;;;;6.00;1.75;;;23.20;99.90;;;;;;5078966;28;20201;-63
2022/06/10 09:43:36;;;;;;;5.60;2.00;;;23.20;99.90;;;;;;5095158;28;20296;-64
2022/06/10 09:46:09;;;;;;;6.68;1.88;;;22.60;99.90;;;;;;5080585;28;20255;-64
2022/06/10 09:48:49;;;;;;;9.30;1.80;;;23.30;99.90;;;;;;5093068;28;20229;-63
2022/06/10 09:51:28;;;;;;;6.00;2.38;;;23.60;99.90;;;;;;5076589;28;20266;-64
2022/06/10 09:54:29;;;;;;;4.95;1.52;;;24.40;99.90;;;;;;5094068;28;20242;-63
2022/06/10 09:56:58;;;;;;;6.95;2.45;;;26.10;99.90;;;;;;5096438;28;20192;-64
2022/06/10 09:59:34;;;;;;;4.57;1.90;;;26.40;99.90;;;;;;5106123;28;20277;-64
2022/06/10 10:02:38;;;;;;;3.65;1.40;;;25.60;99.90;;;;;;5100852;28;20683;-65
2022/06/10 10:05:30;;;;;;;5.25;2.03;;;26.10;99.90;;;;;;5094197;28;20198;-64
2022/06/10 10:08:20;;;;;;;6.35;2.03;;;27.00;99.90;;;;;;5080214;28;20236;-64
2022/06/10 10:10:55;;;;;;;9.55;1.60;;;27.90;99.90;;;;;;5067885;28;20656;-64
2022/06/10 10:13:58;;;;;;;4.63;1.60;;;28.50;99.90;;;;;;5099539;28;20248;-64
2022/06/10 10:16:36;;;;;;;5.95;1.58;;;27.40;99.90;;;;;;5101630;28;20202;-64
2022/06/10 10:19:45;;;;;;;5.45;1.75;;;29.10;99.90;;;;;;5096531;28;20200;-64
2022/06/10 10:22:30;;;;;;;5.07;1.50;;;30.30;99.90;;;;;;5052083;28;20247;-63
2022/06/10 10:24:58;;;;;;;5.20;1.83;;;31.30;99.90;;;;;;5077450;28;20228;-63
2022/06/10 10:27:34;;;;;;;3.92;1.55;;;28.60;99.90;;;;;;5096831;28;20194;-64
2022/06/10 10:30:17;;;;;;;4.72;1.67;;;27.40;99.90;;;;;;5066608;28;20220;-64
2022/06/10 10:32:50;;;;;;;4.82;1.40;;;27.50;99.90;;;;;;5093245;28;21224;-64
2022/06/10 10:35:24;;;;;;;5.25;1.70;;;29.40;99.90;;;;;;5070268;28;20824;-64
2022/06/10 10:38:02;;;;;;;5.35;1.60;;;30.50;99.90;;;;;;5092103;28;20213;-64
2022/06/10 10:40:47;;;;;;;5.03;1.77;;;31.10;99.90;;;;;;5065501;28;20272;-66
2022/06/10 10:43:25;;;;;;;5.15;1.58;;;32.40;99.90;;;;;;5093650;28;20207;-65
2022/06/10 10:45:55;;;;;;;5.95;1.75;;;31.80;99.90;;;;;;5097458;28;20178;-64
2022/06/10 10:48:31;;;;;;;5.15;1.58;;;31.90;99.90;;;;;;5093227;28;20228;-64
2022/06/10 10:51:05;;;;;;;4.95;1.63;;;32.00;99.90;;;;;;5066339;28;20721;-64
2022/06/10 10:53:41;;;;;;;3.78;1.60;;;29.30;99.90;;;;;;5099296;28;20593;-64
2022/06/10 10:56:12;;;;;;;9.55;2.75;;;29.30;99.90;;;;;;5065291;28;20186;-63
2022/06/10 10:58:50;;;;;;;14.43;3.70;;;28.40;99.90;;;;;;5096249;28;20223;-63
2022/06/10 11:01:45;;;;;;;27.83;6.47;;;28.20;99.90;;;;;;5079713;28;20221;-63
2022/06/10 11:04:17;;;;;;;6.82;1.80;;;27.60;99.90;;;;;;5099867;28;20225;-64
2022/06/10 11:06:44;;;;;;;16.00;3.92;;;26.20;99.90;;;;;;5093928;28;20202;-64
2022/06/10 11:09:23;;;;;;;6.45;2.13;;;26.10;99.90;;;;;;5100383;28;20233;-64
2022/06/10 11:11:52;;;;;;;9.20;2.50;;;25.80;99.90;;;;;;5099741;28;20699;-64
2022/06/10 11:14:25;;;;;;;6.75;2.08;;;26.10;99.90;;;;;;5064704;28;20196;-64
2022/06/10 11:17:13;;;;;;;5.55;2.42;;;25.80;99.90;;;;;;5100398;28;20212;-64
2022/06/10 11:19:40;;;;;;;6.20;1.60;;;26.50;99.90;;;;;;5099027;28;20719;-64
2022/06/10 11:22:09;;;;;;;6.07;1.77;;;26.70;99.90;;;;;;5100768;28;20218;-63
2022/06/10 11:24:43;;;;;;;8.40;2.42;;;26.50;99.90;;;;;;5077477;28;20255;-64
2022/06/10 11:27:27;;;;;;;5.68;2.00;;;25.80;99.90;;;;;;5082597;28;20276;-65
2022/06/10 11:30:13;;;;;;;6.03;1.75;;;25.90;99.90;;;;;;5077406;28;20182;-64
2022/06/10 11:32:49;;;;;;;5.97;1.83;;;25.80;99.90;;;;;;5096012;28;20678;-63
2022/06/10 11:35:21;;;;;;;6.05;2.00;;;24.90;99.90;;;;;;5090864;28;20185;-64
2022/06/10 11:37:53;;;;;;;6.55;1.77;;;24.40;99.90;;;;;;5077069;28;20226;-63
2022/06/10 11:40:37;;;;;;;5.50;2.20;;;24.10;99.90;;;;;;5080639;28;20617;-64
2022/06/10 11:43:12;;;;;;;5.88;1.88;;;24.50;99.90;;;;;;5077609;28;20653;-64
2022/06/10 11:45:49;;;;;;;5.50;2.13;;;25.20;99.90;;;;;;5095984;28;20216;-64
2022/06/10 11:48:32;;;;;;;8.02;2.30;;;24.40;99.90;;;;;;5098188;28;20689;-64
2022/06/10 11:51:14;;;;;;;3.45;1.63;;;24.40;99.90;;;;;;5099653;28;20551;-64
2022/06/10 11:54:03;;;;;;;7.57;1.73;;;24.80;99.90;;;;;;5080458;28;20243;-64
2022/06/10 11:59:45;;;;;;;5.75;1.77;;;26.60;99.90;;;;;;5082048;28;20316;-63
2022/06/10 12:02:53;;;;;;;4.22;1.42;;;27.60;99.90;;;;;;5094941;28;20190;-64
2022/06/10 12:05:25;;;;;;;6.93;1.85;;;28.70;99.90;;;;;;5092943;28;20209;-64
2022/06/10 12:07:56;;;;;;;6.70;2.53;;;27.80;99.90;;;;;;5079946;28;20232;-64
2022/06/10 12:10:38;;;;;;;7.38;2.10;;;28.60;99.90;;;;;;5079377;28;20186;-63
2022/06/10 12:13:11;;;;;;;6.97;2.10;;;28.30;99.90;;;;;;5096276;28;20193;-65
2022/06/10 12:16:03;;;;;;;6.13;2.25;;;27.10;99.90;;;;;;5077561;28;20346;-64
2022/06/10 12:18:49;;;;;;;5.47;2.10;;;26.10;99.90;;;;;;5076886;28;20206;-64
2022/06/10 12:21:23;;;;;;;6.57;3.35;;;27.00;99.90;;;;;;5097947;28;20263;-63
2022/06/10 12:23:51;;;;;;;6.32;3.25;;;26.50;99.90;;;;;;5097263;28;20198;-64
2022/06/10 12:26:30;;;;;;;8.48;2.95;;;25.40;99.90;;;;;;5080043;28;20206;-64
2022/06/10 12:29:02;;;;;;;10.00;2.45;;;25.00;99.90;;;;;;5093726;28;20205;-63
2022/06/10 12:32:00;;;;;;;4.35;2.22;;;24.70;99.90;;;;;;5096640;28;20193;-64
2022/06/10 12:34:59;;;;;;;7.35;2.10;;;25.30;99.90;;;;;;5094929;28;20194;-64
2022/06/10 12:37:44;;;;;;;8.05;2.45;;;25.20;99.90;;;;;;5082587;28;20287;-64
2022/06/10 12:40:25;;;;;;;7.03;2.28;;;25.70;99.90;;;;;;5098848;28;20193;-64
2022/06/10 12:43:00;;;;;;;5.05;2.10;;;26.10;99.90;;;;;;5095478;28;20212;-64
2022/06/10 12:45:33;;;;;;;6.82;3.63;;;25.70;99.90;;;;;;5064031;28;20247;-63
2022/06/10 12:48:09;;;;;;;5.30;2.25;;;26.50;99.90;;;;;;5072213;28;20228;-65
2022/06/10 12:50:47;;;;;;;7.03;2.33;;;26.20;99.90;;;;;;5062211;28;20313;-64
2022/06/10 12:53:17;;;;;;;8.82;2.40;;;25.80;99.90;;;;;;5098972;28;20182;-64
2022/06/10 12:55:46;;;;;;;5.72;2.20;;;26.60;99.90;;;;;;5070156;28;20193;-64
2022/06/10 12:58:40;;;;;;;6.10;2.15;;;26.70;99.90;;;;;;5091233;28;20224;-64
2022/06/10 13:01:30;;;;;;;7.22;2.40;;;26.50;99.90;;;;;;5059770;28;20205;-63
2022/06/10 13:04:14;;;;;;;4.68;1.95;;;25.40;99.90;;;;;;5051007;28;20228;-64
2022/06/10 13:06:41;;;;;;;5.55;2.10;;;25.00;99.90;;;;;;5096706;28;20200;-63
2022/06/10 13:09:12;;;;;;;5.72;2.30;;;25.10;99.90;;;;;;5079776;28;20248;-63
2022/06/10 13:11:57;;;;;;;7.70;3.20;;;25.10;99.90;;;;;;5097678;28;20206;-64
2022/06/10 13:14:30;;;;;;;4.30;2.13;;;25.30;99.90;;;;;;5097048;28;20185;-65
2022/06/10 13:17:12;;;;;;;6.47;2.25;;;25.70;99.90;;;;;;5098306;28;20186;-64
2022/06/10 13:19:51;;;;;;;5.68;2.28;;;25.00;99.90;;;;;;5098866;28;20197;-64
2022/06/10 13:22:21;;;;;;;6.38;2.55;;;24.70;99.90;;;;;;5080390;28;20205;-64
2022/06/10 13:24:54;;;;;;;7.45;2.40;;;25.50;99.90;;;;;;5061438;28;20217;-64
2022/06/10 13:27:32;;;;;;;5.97;1.90;;;25.90;99.90;;;;;;5095227;28;20654;-64
2022/06/10 13:30:02;;;;;;;6.40;2.53;;;26.50;99.90;;;;;;5061625;28;20245;-63
2022/06/10 13:32:29;;;;;;;8.95;3.03;;;26.00;99.90;;;;;;5078738;28;20181;-64
2022/06/10 13:35:02;;;;;;;7.43;2.28;;;27.00;99.90;;;;;;5100286;28;20232;-64
2022/06/10 13:37:36;;;;;;;4.40;2.25;;;27.00;99.90;;;;;;5096659;28;20221;-64
2022/06/10 13:40:06;;;;;;;7.85;2.25;;;26.10;99.90;;;;;;5084010;28;20254;-63
2022/06/10 13:42:37;;;;;;;6.35;2.30;;;25.30;99.90;;;;;;5082579;28;20206;-64
2022/06/10 13:45:19;;;;;;;5.60;2.55;;;25.50;99.90;;;;;;5082373;28;20206;-64
2022/06/10 13:48:02;;;;;;;8.25;2.60;;;25.10;99.90;;;;;;5097354;28;20243;-64
2022/06/10 13:53:22;;;;;;;3.15;2.20;;;25.30;99.90;;;;;;5100568;28;20186;-64
2022/06/10 13:56:00;;;;;;;8.35;2.65;;;25.20;99.90;;;;;;5099502;28;20190;-64
2022/06/10 13:58:32;;;;;;;5.35;2.20;;;25.80;99.90;;;;;;5099492;28;20201;-64
2022/06/10 14:01:14;;;;;;;8.05;2.65;;;25.80;99.90;;;;;;5101156;28;20209;-65
2022/06/10 14:03:54;;;;;;;4.25;2.20;;;25.30;99.90;;;;;;5101540;28;20201;-63
2022/06/10 14:06:33;;;;;;;7.93;2.67;;;24.60;99.90;;;;;;5081953;28;20190;-64
2022/06/10 14:09:12;;;;;;;3.25;2.20;;;24.80;99.90;;;;;;5101773;28;20268;-64
2022/06/10 14:11:42;;;;;;;7.47;2.50;;;22.80;99.90;;;;;;5081350;28;20217;-64
2022/06/10 14:14:19;;;;;;;5.95;2.47;;;25.20;99.90;;;;;;5066449;28;20198;-64
2022/06/10 14:17:03;;;;;;;8.68;2.67;;;25.50;99.90;;;;;;5077135;28;20189;-64
2022/06/10 14:19:35;;;;;;;5.82;2.28;;;25.40;99.90;;;;;;5096516;28;20247;-64
2022/06/10 14:22:20;;;;;;;5.10;2.00;;;24.50;99.90;;;;;;5100078;28;20229;-64
2022/06/10 14:25:16;;;;;;;5.85;1.67;;;24.10;99.90;;;;;;5083232;28;20201;-63
2022/06/10 14:27:57;;;;;;;5.68;1.83;;;23.70;99.90;;;;;;5100364;28;20208;-64
2022/06/10 14:30:38;;;;;;;3.75;1.88;;;23.90;99.90;;;;;;5079543;28;20665;-64
2022/06/10 14:33:33;;;;;;;9.80;2.30;;;24.20;99.90;;;;;;5098704;28;20247;-64
2022/06/10 14:36:23;;;;;;;9.65;2.00;;;24.40;99.90;;;;;;5082610;28;20202;-64
2022/06/10 14:39:11;;;;;;;6.50;2.17;;;24.30;99.90;;;;;;5098394;28;20329;-64
2022/06/10 14:41:51;;;;;;;5.32;1.83;;;24.40;99.90;;;;;;5098099;28;20193;-64
2022/06/10 14:44:23;;;;;;;4.32;1.98;;;24.10;99.90;;;;;;5099435;28;20198;-64
2022/06/10 14:47:22;;;;;;;4.78;1.88;;;24.20;99.90;;;;;;5100517;28;20278;-64
2022/06/10 14:50:07;;;;;;;4.38;1.60;;;24.70;99.90;;;;;;5066803;28;20202;-64
2022/06/10 14:52:43;;;;;;;8.13;2.13;;;25.00;99.90;;;;;;5081920;28;20201;-64
2022/06/10 14:55:18;;;;;;;5.43;1.75;;;25.50;99.90;;;;;;5078474;28;20185;-64
2022/06/10 14:57:53;;;;;;;5.10;1.75;;;25.60;99.90;;;;;;5061835;28;20197;-63
2022/06/10 15:00:22;;;;;;;7.97;2.20;;;24.90;99.90;;;;;;5090127;28;20207;-64
2022/06/10 15:02:49;;;;;;;5.70;2.00;;;24.40;99.90;;;;;;5085223;28;20209;-64
2022/06/10 15:08:05;;;;;;;5.80;1.70;;;24.70;99.90;;;;;;5090832;28;20190;-66
2022/06/10 15:10:36;;;;;;;6.55;1.77;;;24.90;99.90;;;;;;5070316;28;20213;-65
2022/06/10 15:13:10;;;;;;;6.72;1.88;;;24.90;99.90;;;;;;5086830;28;20584;-65
2022/06/10 15:15:37;;;;;;;5.65;1.90;;;25.00;99.90;;;;;;5085474;28;20198;-64
2022/06/10 15:18:05;;;;;;;5.57;2.10;;;25.00;99.90;;;;;;5068321;28;20774;-64
2022/06/10 15:20:33;;;;;;;5.63;2.00;;;24.50;99.90;;;;;;5086866;28;20193;-64
2022/06/10 15:23:00;;;;;;;5.80;1.70;;;24.70;99.90;;;;;;5070339;28;20254;-64
2022/06/10 15:25:38;;;;;;;6.97;1.80;;;24.50;99.90;;;;;;5088411;28;20331;-64
2022/06/10 15:28:14;;;;;;;6.50;2.15;;;23.90;99.90;;;;;;5059320;28;20198;-64
2022/06/10 15:30:42;;;;;;;4.32;1.83;;;23.90;99.90;;;;;;5091771;28;20198;-64
2022/06/10 15:33:12;;;;;;;4.93;1.80;;;23.90;99.90;;;;;;5055622;28;20198;-64
2022/06/10 15:41:13;;;;;;;4.43;1.85;;;24.10;99.90;;;;;;5092089;28;20709;-64
2022/06/10 15:43:41;;;;;;;6.85;1.85;;;23.90;99.90;;;;;;5070374;28;20678;-65
2022/06/10 15:46:17;;;;;;;7.93;2.03;;;24.00;99.90;;;;;;5055687;28;20190;-65
2022/06/10 15:48:46;;;;;;;5.35;1.92;;;24.00;99.90;;;;;;5058377;28;20272;-65
2022/06/10 15:51:37;;;;;;;5.25;1.92;;;24.20;99.90;;;;;;5068900;28;20248;-64
2022/06/10 15:54:13;;;;;;;5.88;1.45;;;24.60;99.90;;;;;;5064240;28;20187;-64
2022/06/10 15:59:30;;;;;;;4.18;1.45;;;24.70;99.90;;;;;;5067588;28;20710;-64
2022/06/10 16:01:58;;;;;;;5.18;1.40;;;24.70;99.90;;;;;;5067454;28;20210;-64
2022/06/10 16:04:27;;;;;;;4.70;1.73;;;24.90;99.90;;;;;;5067032;28;20199;-64
2022/06/10 16:06:55;;;;;;;4.28;1.90;;;24.50;99.90;;;;;;5064417;28;20186;-63
2022/06/10 16:09:22;;;;;;;6.00;1.70;;;24.70;99.90;;;;;;5068388;28;20310;-63
2022/06/10 16:14:44;;;;;;;5.68;1.80;;;24.80;99.90;;;;;;5076888;28;20191;-64
2022/06/10 16:17:12;;;;;;;5.32;1.98;;;24.40;99.90;;;;;;5064469;28;20562;-64
2022/06/10 16:19:39;;;;;;;6.60;1.40;;;24.10;99.90;;;;;;5067567;28;20250;-64
2022/06/10 16:22:09;;;;;;;4.68;1.58;;;23.80;99.90;;;;;;5072640;28;20243;-62
2022/06/10 16:24:36;;;;;;;7.90;1.80;;;23.70;99.90;;;;;;5050226;28;20319;-64
2022/06/10 16:27:04;;;;;;;5.47;1.90;;;23.60;99.90;;;;;;5070805;28;20206;-64
2022/06/10 16:29:31;;;;;;;4.65;1.85;;;23.70;99.90;;;;;;5072621;28;20214;-64
2022/06/10 16:31:59;;;;;;;4.10;1.70;;;23.70;99.90;;;;;;5069796;28;21020;-63
2022/06/10 16:34:27;;;;;;;5.63;2.03;;;23.60;99.90;;;;;;5070194;28;20197;-63
2022/06/10 16:36:54;;;;;;;7.57;1.98;;;23.70;99.90;;;;;;5069131;28;20241;-64
2022/06/10 16:39:21;;;;;;;11.02;3.78;;;23.80;99.90;;;;;;5069646;28;20214;-64
2022/06/10 16:41:50;;;;;;;6.15;3.08;;;24.00;99.90;;;;;;5069620;28;20642;-63
2022/06/10 16:44:28;;;;;;;4.80;1.85;;;24.10;99.90;;;;;;5074464;28;21549;-63